sensor_id;sensor_type;location;lat;lon;timestamp;temperature;humidity
11615;DHT22;5863;52.832;4.758;2023-02-21T00:00:53;9.90;99.90
11615;DHT22;5863;52.832;4.758;2023-02-21T00:03:39;10.00;99.90
11615;DHT22;5863;52.832;4.758;2023-02-21T00:06:23;10.00;99.90
11615;DHT22;5863;52.832;4.758;2023-02-21T00:09:08;10.00;99.90
11615;DHT22;5863;52.832;4.758;2023-02-21T00:11:52;9.90;99.90
11615;DHT22;5863;52.832;4.758;2023-02-21T00:14:36;10.00;99.90
11615;DHT22;5863;52.832;4.758;2023-02-21T00:17:21;9.90;99.90
11615;DHT22;5863;52.832;4.758;2023-02-21T00:20:06;9.90;99.90
11615;DHT22;5863;52.832;4.758;2023-02-21T00:22:50;9.90;99.90
11615;DHT22;5863;52.832;4.758;2023-02-21T00:25:42;9.90;99.90
11615;DHT22;5863;52.832;4.758;2023-02-21T00:28:27;9.90;99.90
11615;DHT22;5863;52.832;4.758;2023-02-21T00:31:11;9.90;99.90
11615;DHT22;5863;52.832;4.758;2023-02-21T00:33:58;9.90;99.90
11615;DHT22;5863;52.832;4.758;2023-02-21T00:36:42;10.00;99.90
11615;DHT22;5863;52.832;4.758;2023-02-21T00:39:26;9.90;99.90
11615;DHT22;5863;52.832;4.758;2023-02-21T00:42:11;9.90;99.90
11615;DHT22;5863;52.832;4.758;2023-02-21T00:44:56;9.90;99.90
11615;DHT22;5863;52.832;4.758;2023-02-21T00:47:40;9.90;99.90
11615;DHT22;5863;52.832;4.758;2023-02-21T00:50:24;9.90;99.90
11615;DHT22;5863;52.832;4.758;2023-02-21T00:53:09;9.90;99.90
11615;DHT22;5863;52.832;4.758;2023-02-21T00:55:53;9.90;99.90
11615;DHT22;5863;52.832;4.758;2023-02-21T00:58:39;9.80;99.90
11615;DHT22;5863;52.832;4.758;2023-02-21T01:01:25;9.80;99.90
11615;DHT22;5863;52.832;4.758;2023-02-21T01:04:09;9.70;99.90
11615;DHT22;5863;52.832;4.758;2023-02-21T01:06:53;9.70;99.90
11615;DHT22;5863;52.832;4.758;2023-02-21T01:09:37;9.80;99.90
11615;DHT22;5863;52.832;4.758;2023-02-21T01:12:21;9.80;99.90
11615;DHT22;5863;52.832;4.758;2023-02-21T01:15:07;9.80;99.90
11615;DHT22;5863;52.832;4.758;2023-02-21T01:17:52;9.80;99.90
11615;DHT22;5863;52.832;4.758;2023-02-21T01:20:36;9.80;99.90
11615;DHT22;5863;52.832;4.758;2023-02-21T01:23:21;9.80;99.90
11615;DHT22;5863;52.832;4.758;2023-02-21T01:26:07;9.80;99.90
11615;DHT22;5863;52.832;4.758;2023-02-21T01:28:51;9.80;99.90
11615;DHT22;5863;52.832;4.758;2023-02-21T01:31:37;9.90;99.90
11615;DHT22;5863;52.832;4.758;2023-02-21T01:34:21;9.80;99.90
11615;DHT22;5863;52.832;4.758;2023-02-21T01:37:05;9.70;99.90
11615;DHT22;5863;52.832;4.758;2023-02-21T01:39:53;9.70;99.90
11615;DHT22;5863;52.832;4.758;2023-02-21T01:42:37;9.80;99.90
11615;DHT22;5863;52.832;4.758;2023-02-21T01:45:47;9.80;99.90
11615;DHT22;5863;52.832;4.758;2023-02-21T01:48:33;9.80;99.90
11615;DHT22;5863;52.832;4.758;2023-02-21T01:51:22;9.80;99.90
11615;DHT22;5863;52.832;4.758;2023-02-21T01:54:07;9.80;99.90
11615;DHT22;5863;52.832;4.758;2023-02-21T01:56:53;9.80;99.90
11615;DHT22;5863;52.832;4.758;2023-02-21T01:59:38;9.80;99.90
11615;DHT22;5863;52.832;4.758;2023-02-21T02:02:28;9.80;99.90
11615;DHT22;5863;52.832;4.758;2023-02-21T02:05:15;9.70;99.90
11615;DHT22;5863;52.832;4.758;2023-02-21T02:08:00;9.70;99.90
11615;DHT22;5863;52.832;4.758;2023-02-21T02:10:45;9.70;99.90
11615;DHT22;5863;52.832;4.758;2023-02-21T02:13:48;9.60;99.90
11615;DHT22;5863;52.832;4.758;2023-02-21T02:16:25;9.50;99.90
11615;DHT22;5863;52.832;4.758;2023-02-21T02:19:03;9.60;99.90
11615;DHT22;5863;52.832;4.758;2023-02-21T02:22:05;9.50;99.90
11615;DHT22;5863;52.832;4.758;2023-02-21T02:24:45;9.50;99.90
11615;DHT22;5863;52.832;4.758;2023-02-21T02:27:42;9.50;99.90
11615;DHT22;5863;52.832;4.758;2023-02-21T02:33:53;9.40;99.90
11615;DHT22;5863;52.832;4.758;2023-02-21T02:36:26;9.40;99.90
11615;DHT22;5863;52.832;4.758;2023-02-21T02:39:00;9.40;99.90
11615;DHT22;5863;52.832;4.758;2023-02-21T02:41:35;9.40;99.90
11615;DHT22;5863;52.832;4.758;2023-02-21T02:44:13;9.30;99.90
11615;DHT22;5863;52.832;4.758;2023-02-21T02:46:42;9.30;99.90
11615;DHT22;5863;52.832;4.758;2023-02-21T02:49:15;9.30;99.90
11615;DHT22;5863;52.832;4.758;2023-02-21T02:51:44;9.30;99.90
11615;DHT22;5863;52.832;4.758;2023-02-21T02:54:11;9.30;99.90
11615;DHT22;5863;52.832;4.758;2023-02-21T02:56:39;9.30;99.90
11615;DHT22;5863;52.832;4.758;2023-02-21T02:59:08;9.30;99.90
11615;DHT22;5863;52.832;4.758;2023-02-21T03:02:02;9.40;99.90
11615;DHT22;5863;52.832;4.758;2023-02-21T03:07:39;9.40;99.90
11615;DHT22;5863;52.832;4.758;2023-02-21T03:10:16;9.50;99.90
11615;DHT22;5863;52.832;4.758;2023-02-21T03:12:47;9.40;99.90
11615;DHT22;5863;52.832;4.758;2023-02-21T03:15:17;9.50;99.90
11615;DHT22;5863;52.832;4.758;2023-02-21T03:17:48;9.50;99.90
11615;DHT22;5863;52.832;4.758;2023-02-21T03:20:16;9.40;99.90
11615;DHT22;5863;52.832;4.758;2023-02-21T03:22:45;9.50;99.90
11615;DHT22;5863;52.832;4.758;2023-02-21T03:25:14;9.50;99.90
11615;DHT22;5863;52.832;4.758;2023-02-21T03:27:42;9.50;99.90
11615;DHT22;5863;52.832;4.758;2023-02-21T03:30:10;9.50;99.90
11615;DHT22;5863;52.832;4.758;2023-02-21T03:32:39;9.50;99.90
11615;DHT22;5863;52.832;4.758;2023-02-21T03:35:09;9.50;99.90
11615;DHT22;5863;52.832;4.758;2023-02-21T03:37:38;9.50;99.90
11615;DHT22;5863;52.832;4.758;2023-02-21T03:40:10;9.50;99.90
11615;DHT22;5863;52.832;4.758;2023-02-21T03:42:37;9.50;99.90
11615;DHT22;5863;52.832;4.758;2023-02-21T03:45:04;9.60;99.90
11615;DHT22;5863;52.832;4.758;2023-02-21T03:47:31;9.60;99.90
11615;DHT22;5863;52.832;4.758;2023-02-21T03:49:58;9.60;99.90
11615;DHT22;5863;52.832;4.758;2023-02-21T03:52:24;9.60;99.90
11615;DHT22;5863;52.832;4.758;2023-02-21T03:54:51;9.60;99.90
11615;DHT22;5863;52.832;4.758;2023-02-21T03:57:19;9.70;99.90
11615;DHT22;5863;52.832;4.758;2023-02-21T03:59:46;9.60;99.90
11615;DHT22;5863;52.832;4.758;2023-02-21T04:02:13;9.60;99.90
11615;DHT22;5863;52.832;4.758;2023-02-21T04:04:40;9.60;99.90
11615;DHT22;5863;52.832;4.758;2023-02-21T04:07:06;9.60;99.90
11615;DHT22;5863;52.832;4.758;2023-02-21T04:09:33;9.50;99.90
11615;DHT22;5863;52.832;4.758;2023-02-21T04:12:00;9.50;99.90
11615;DHT22;5863;52.832;4.758;2023-02-21T04:14:28;9.60;99.90
11615;DHT22;5863;52.832;4.758;2023-02-21T04:16:54;9.60;99.90
11615;DHT22;5863;52.832;4.758;2023-02-21T04:19:21;9.50;99.90
11615;DHT22;5863;52.832;4.758;2023-02-21T04:21:48;9.50;99.90
11615;DHT22;5863;52.832;4.758;2023-02-21T04:24:15;9.60;99.90
11615;DHT22;5863;52.832;4.758;2023-02-21T04:26:42;9.60;99.90
11615;DHT22;5863;52.832;4.758;2023-02-21T04:29:08;9.60;99.90
11615;DHT22;5863;52.832;4.758;2023-02-21T04:31:37;9.60;99.90
11615;DHT22;5863;52.832;4.758;2023-02-21T04:34:03;9.70;99.90
11615;DHT22;5863;52.832;4.758;2023-02-21T04:36:30;9.60;99.90
11615;DHT22;5863;52.832;4.758;2023-02-21T04:38:57;9.60;99.90
11615;DHT22;5863;52.832;4.758;2023-02-21T04:41:24;9.50;99.90
11615;DHT22;5863;52.832;4.758;2023-02-21T04:43:50;9.60;99.90
11615;DHT22;5863;52.832;4.758;2023-02-21T04:46:18;9.60;99.90
11615;DHT22;5863;52.832;4.758;2023-02-21T04:48:48;9.60;99.90
11615;DHT22;5863;52.832;4.758;2023-02-21T04:51:16;9.60;99.90
11615;DHT22;5863;52.832;4.758;2023-02-21T04:53:45;9.60;99.90
11615;DHT22;5863;52.832;4.758;2023-02-21T04:56:12;9.60;99.90
11615;DHT22;5863;52.832;4.758;2023-02-21T04:58:38;9.60;99.90
11615;DHT22;5863;52.832;4.758;2023-02-21T05:01:05;9.60;99.90
11615;DHT22;5863;52.832;4.758;2023-02-21T05:03:32;9.60;99.90
11615;DHT22;5863;52.832;4.758;2023-02-21T05:06:00;9.60;99.90
11615;DHT22;5863;52.832;4.758;2023-02-21T05:08:27;9.60;99.90
11615;DHT22;5863;52.832;4.758;2023-02-21T05:10:54;9.70;99.90
11615;DHT22;5863;52.832;4.758;2023-02-21T05:13:20;9.70;99.90
11615;DHT22;5863;52.832;4.758;2023-02-21T05:15:48;9.60;99.90
11615;DHT22;5863;52.832;4.758;2023-02-21T05:18:15;9.60;99.90
11615;DHT22;5863;52.832;4.758;2023-02-21T05:20:47;9.60;99.90
11615;DHT22;5863;52.832;4.758;2023-02-21T05:23:16;9.60;99.90
11615;DHT22;5863;52.832;4.758;2023-02-21T05:25:43;9.60;99.90
11615;DHT22;5863;52.832;4.758;2023-02-21T05:28:10;9.60;99.90
11615;DHT22;5863;52.832;4.758;2023-02-21T05:30:37;9.50;99.90
11615;DHT22;5863;52.832;4.758;2023-02-21T05:33:03;9.60;99.90
11615;DHT22;5863;52.832;4.758;2023-02-21T05:35:32;9.60;99.90
11615;DHT22;5863;52.832;4.758;2023-02-21T05:37:59;9.60;99.90
11615;DHT22;5863;52.832;4.758;2023-02-21T05:40:27;9.50;99.90
11615;DHT22;5863;52.832;4.758;2023-02-21T05:42:55;9.60;99.90
11615;DHT22;5863;52.832;4.758;2023-02-21T05:45:22;9.60;99.90
11615;DHT22;5863;52.832;4.758;2023-02-21T05:47:49;9.60;99.90
11615;DHT22;5863;52.832;4.758;2023-02-21T05:50:16;9.50;99.90
11615;DHT22;5863;52.832;4.758;2023-02-21T05:52:42;9.50;99.90
11615;DHT22;5863;52.832;4.758;2023-02-21T05:55:10;9.50;99.90
11615;DHT22;5863;52.832;4.758;2023-02-21T05:57:38;9.50;99.90
11615;DHT22;5863;52.832;4.758;2023-02-21T06:00:06;9.50;99.90
11615;DHT22;5863;52.832;4.758;2023-02-21T06:02:33;9.50;99.90
11615;DHT22;5863;52.832;4.758;2023-02-21T06:05:00;9.50;99.90
11615;DHT22;5863;52.832;4.758;2023-02-21T06:07:26;9.50;99.90
11615;DHT22;5863;52.832;4.758;2023-02-21T06:09:53;9.50;99.90
11615;DHT22;5863;52.832;4.758;2023-02-21T06:12:20;9.50;99.90
11615;DHT22;5863;52.832;4.758;2023-02-21T06:14:48;9.60;99.90
11615;DHT22;5863;52.832;4.758;2023-02-21T06:17:15;9.60;99.90
11615;DHT22;5863;52.832;4.758;2023-02-21T06:19:41;9.60;99.90
11615;DHT22;5863;52.832;4.758;2023-02-21T06:22:08;9.60;99.90
11615;DHT22;5863;52.832;4.758;2023-02-21T06:24:34;9.60;99.90
11615;DHT22;5863;52.832;4.758;2023-02-21T06:27:01;9.60;99.90
11615;DHT22;5863;52.832;4.758;2023-02-21T06:29:28;9.60;99.90
11615;DHT22;5863;52.832;4.758;2023-02-21T06:31:57;9.60;99.90
11615;DHT22;5863;52.832;4.758;2023-02-21T06:34:24;9.60;99.90
11615;DHT22;5863;52.832;4.758;2023-02-21T06:36:51;9.50;99.90
11615;DHT22;5863;52.832;4.758;2023-02-21T06:39:18;9.50;99.90
11615;DHT22;5863;52.832;4.758;2023-02-21T06:41:45;9.50;99.90
11615;DHT22;5863;52.832;4.758;2023-02-21T06:44:11;9.50;99.90
11615;DHT22;5863;52.832;4.758;2023-02-21T06:46:38;9.60;99.90
11615;DHT22;5863;52.832;4.758;2023-02-21T06:49:06;9.60;99.90
11615;DHT22;5863;52.832;4.758;2023-02-21T06:51:34;9.60;99.90
11615;DHT22;5863;52.832;4.758;2023-02-21T06:54:00;9.60;99.90
11615;DHT22;5863;52.832;4.758;2023-02-21T06:56:27;9.60;99.90
11615;DHT22;5863;52.832;4.758;2023-02-21T06:58:54;9.60;99.90
11615;DHT22;5863;52.832;4.758;2023-02-21T07:01:24;9.60;99.90
11615;DHT22;5863;52.832;4.758;2023-02-21T07:03:59;9.60;99.90
11615;DHT22;5863;52.832;4.758;2023-02-21T07:06:29;9.60;99.90
11615;DHT22;5863;52.832;4.758;2023-02-21T07:08:58;9.60;99.90
11615;DHT22;5863;52.832;4.758;2023-02-21T07:11:33;9.60;99.90
11615;DHT22;5863;52.832;4.758;2023-02-21T07:14:01;9.60;99.90
11615;DHT22;5863;52.832;4.758;2023-02-21T07:16:29;9.60;99.90
11615;DHT22;5863;52.832;4.758;2023-02-21T07:18:56;9.60;99.90
11615;DHT22;5863;52.832;4.758;2023-02-21T07:21:24;9.60;99.90
11615;DHT22;5863;52.832;4.758;2023-02-21T07:23:53;9.60;99.90
11615;DHT22;5863;52.832;4.758;2023-02-21T07:26:20;9.60;99.90
11615;DHT22;5863;52.832;4.758;2023-02-21T07:28:46;9.60;99.90
11615;DHT22;5863;52.832;4.758;2023-02-21T07:31:13;9.60;99.90
11615;DHT22;5863;52.832;4.758;2023-02-21T07:33:44;9.60;99.90
11615;DHT22;5863;52.832;4.758;2023-02-21T07:36:10;9.60;99.90
11615;DHT22;5863;52.832;4.758;2023-02-21T07:38:37;9.60;99.90
11615;DHT22;5863;52.832;4.758;2023-02-21T07:41:12;9.60;99.90
11615;DHT22;5863;52.832;4.758;2023-02-21T07:43:39;9.70;99.90
11615;DHT22;5863;52.832;4.758;2023-02-21T07:46:08;9.70;99.90
11615;DHT22;5863;52.832;4.758;2023-02-21T07:48:35;9.70;99.90
11615;DHT22;5863;52.832;4.758;2023-02-21T07:51:02;9.70;99.90
11615;DHT22;5863;52.832;4.758;2023-02-21T07:53:30;9.70;99.90
11615;DHT22;5863;52.832;4.758;2023-02-21T07:55:56;9.70;99.90
11615;DHT22;5863;52.832;4.758;2023-02-21T07:58:24;9.70;99.90
11615;DHT22;5863;52.832;4.758;2023-02-21T08:00:51;9.80;99.90
11615;DHT22;5863;52.832;4.758;2023-02-21T08:03:21;9.80;99.90
11615;DHT22;5863;52.832;4.758;2023-02-21T08:05:49;9.80;99.90
11615;DHT22;5863;52.832;4.758;2023-02-21T08:08:15;9.80;99.90
11615;DHT22;5863;52.832;4.758;2023-02-21T08:10:42;9.90;99.90
11615;DHT22;5863;52.832;4.758;2023-02-21T08:13:09;9.90;99.90
11615;DHT22;5863;52.832;4.758;2023-02-21T08:15:37;9.90;99.90
11615;DHT22;5863;52.832;4.758;2023-02-21T08:18:04;10.00;99.90
11615;DHT22;5863;52.832;4.758;2023-02-21T08:20:30;10.00;99.90
11615;DHT22;5863;52.832;4.758;2023-02-21T08:22:57;10.00;99.90
11615;DHT22;5863;52.832;4.758;2023-02-21T08:25:24;10.00;99.90
11615;DHT22;5863;52.832;4.758;2023-02-21T08:27:50;10.00;99.90
11615;DHT22;5863;52.832;4.758;2023-02-21T08:30:20;10.00;99.90
11615;DHT22;5863;52.832;4.758;2023-02-21T08:32:48;10.00;99.90
11615;DHT22;5863;52.832;4.758;2023-02-21T08:35:17;9.90;99.90
11615;DHT22;5863;52.832;4.758;2023-02-21T08:37:45;10.00;99.90
11615;DHT22;5863;52.832;4.758;2023-02-21T08:40:13;9.90;99.90
11615;DHT22;5863;52.832;4.758;2023-02-21T08:42:41;10.00;99.90
11615;DHT22;5863;52.832;4.758;2023-02-21T08:45:14;9.80;99.90
11615;DHT22;5863;52.832;4.758;2023-02-21T08:47:41;10.00;99.90
11615;DHT22;5863;52.832;4.758;2023-02-21T08:50:09;10.00;99.90
11615;DHT22;5863;52.832;4.758;2023-02-21T08:52:36;10.00;99.90
11615;DHT22;5863;52.832;4.758;2023-02-21T08:55:04;10.00;99.90
11615;DHT22;5863;52.832;4.758;2023-02-21T08:57:30;10.10;99.90
11615;DHT22;5863;52.832;4.758;2023-02-21T09:00:00;10.10;99.90
11615;DHT22;5863;52.832;4.758;2023-02-21T09:02:28;10.00;99.90
11615;DHT22;5863;52.832;4.758;2023-02-21T09:04:55;10.00;99.90
11615;DHT22;5863;52.832;4.758;2023-02-21T09:07:23;10.10;99.90
11615;DHT22;5863;52.832;4.758;2023-02-21T09:09:50;10.10;99.90
11615;DHT22;5863;52.832;4.758;2023-02-21T09:12:21;10.10;99.90
11615;DHT22;5863;52.832;4.758;2023-02-21T09:14:48;10.10;99.90
11615;DHT22;5863;52.832;4.758;2023-02-21T09:17:14;10.20;99.90
11615;DHT22;5863;52.832;4.758;2023-02-21T09:19:41;10.20;99.90
11615;DHT22;5863;52.832;4.758;2023-02-21T09:22:09;10.20;99.90
11615;DHT22;5863;52.832;4.758;2023-02-21T09:24:37;10.20;99.90
11615;DHT22;5863;52.832;4.758;2023-02-21T09:27:05;10.20;99.90
11615;DHT22;5863;52.832;4.758;2023-02-21T09:29:33;10.20;99.90
11615;DHT22;5863;52.832;4.758;2023-02-21T09:32:01;10.30;99.90
11615;DHT22;5863;52.832;4.758;2023-02-21T09:34:28;10.30;99.90
11615;DHT22;5863;52.832;4.758;2023-02-21T09:36:55;10.20;99.90
11615;DHT22;5863;52.832;4.758;2023-02-21T09:39:22;10.20;99.90
11615;DHT22;5863;52.832;4.758;2023-02-21T09:41:50;10.30;99.90
11615;DHT22;5863;52.832;4.758;2023-02-21T09:44:22;10.20;99.90
11615;DHT22;5863;52.832;4.758;2023-02-21T09:46:53;10.30;99.90
11615;DHT22;5863;52.832;4.758;2023-02-21T09:49:23;10.30;99.90
11615;DHT22;5863;52.832;4.758;2023-02-21T09:51:52;10.40;99.90
11615;DHT22;5863;52.832;4.758;2023-02-21T09:54:24;10.30;99.90
11615;DHT22;5863;52.832;4.758;2023-02-21T09:56:53;10.40;99.90
11615;DHT22;5863;52.832;4.758;2023-02-21T09:59:22;10.40;99.90
11615;DHT22;5863;52.832;4.758;2023-02-21T10:01:58;10.40;99.90
11615;DHT22;5863;52.832;4.758;2023-02-21T10:04:43;10.40;99.90
11615;DHT22;5863;52.832;4.758;2023-02-21T10:07:21;10.50;99.90
11615;DHT22;5863;52.832;4.758;2023-02-21T10:09:54;10.40;99.90
11615;DHT22;5863;52.832;4.758;2023-02-21T10:12:29;10.50;99.90
11615;DHT22;5863;52.832;4.758;2023-02-21T10:18:05;10.50;99.90
11615;DHT22;5863;52.832;4.758;2023-02-21T10:20:37;10.50;99.90
11615;DHT22;5863;52.832;4.758;2023-02-21T10:23:13;10.40;99.90
11615;DHT22;5863;52.832;4.758;2023-02-21T10:25:41;10.40;99.90
11615;DHT22;5863;52.832;4.758;2023-02-21T10:28:20;10.40;99.90
11615;DHT22;5863;52.832;4.758;2023-02-21T10:30:48;10.40;99.90
11615;DHT22;5863;52.832;4.758;2023-02-21T10:33:15;10.40;99.90
11615;DHT22;5863;52.832;4.758;2023-02-21T10:35:42;10.40;99.90
11615;DHT22;5863;52.832;4.758;2023-02-21T10:38:11;10.40;99.90
11615;DHT22;5863;52.832;4.758;2023-02-21T10:40:41;10.50;99.90
11615;DHT22;5863;52.832;4.758;2023-02-21T10:43:14;10.50;99.90
11615;DHT22;5863;52.832;4.758;2023-02-21T10:45:44;10.50;99.90
11615;DHT22;5863;52.832;4.758;2023-02-21T10:48:13;10.50;99.90
11615;DHT22;5863;52.832;4.758;2023-02-21T10:50:44;10.50;99.90
11615;DHT22;5863;52.832;4.758;2023-02-21T10:53:27;10.40;99.90
11615;DHT22;5863;52.832;4.758;2023-02-21T10:56:18;10.40;99.90
11615;DHT22;5863;52.832;4.758;2023-02-21T10:58:48;10.50;99.90
11615;DHT22;5863;52.832;4.758;2023-02-21T11:01:17;10.50;99.90
11615;DHT22;5863;52.832;4.758;2023-02-21T11:03:48;10.60;99.90
11615;DHT22;5863;52.832;4.758;2023-02-21T11:06:31;10.60;99.90
11615;DHT22;5863;52.832;4.758;2023-02-21T11:08:59;10.60;99.90
11615;DHT22;5863;52.832;4.758;2023-02-21T11:11:41;10.50;99.90
11615;DHT22;5863;52.832;4.758;2023-02-21T11:14:23;10.50;99.90
11615;DHT22;5863;52.832;4.758;2023-02-21T11:17:06;10.60;99.90
11615;DHT22;5863;52.832;4.758;2023-02-21T11:19:45;10.60;99.90
11615;DHT22;5863;52.832;4.758;2023-02-21T11:22:17;10.50;99.90
11615;DHT22;5863;52.832;4.758;2023-02-21T11:24:50;10.60;99.90
11615;DHT22;5863;52.832;4.758;2023-02-21T11:27:17;10.60;99.90
11615;DHT22;5863;52.832;4.758;2023-02-21T11:29:48;10.60;99.90
11615;DHT22;5863;52.832;4.758;2023-02-21T11:32:24;10.70;99.90
11615;DHT22;5863;52.832;4.758;2023-02-21T11:35:00;10.70;99.90
11615;DHT22;5863;52.832;4.758;2023-02-21T11:37:27;10.80;99.90
11615;DHT22;5863;52.832;4.758;2023-02-21T11:39:55;10.70;99.90
11615;DHT22;5863;52.832;4.758;2023-02-21T11:42:27;10.70;99.90
11615;DHT22;5863;52.832;4.758;2023-02-21T11:45:14;10.70;99.90
11615;DHT22;5863;52.832;4.758;2023-02-21T11:47:47;10.70;99.90
11615;DHT22;5863;52.832;4.758;2023-02-21T11:50:22;10.80;99.90
11615;DHT22;5863;52.832;4.758;2023-02-21T11:52:58;10.80;99.90
11615;DHT22;5863;52.832;4.758;2023-02-21T11:55:27;10.80;99.90
11615;DHT22;5863;52.832;4.758;2023-02-21T11:58:06;10.80;99.90
11615;DHT22;5863;52.832;4.758;2023-02-21T12:00:43;10.80;99.90
11615;DHT22;5863;52.832;4.758;2023-02-21T12:03:30;10.90;99.90
11615;DHT22;5863;52.832;4.758;2023-02-21T12:06:05;10.80;99.90
11615;DHT22;5863;52.832;4.758;2023-02-21T12:08:39;10.80;99.90
11615;DHT22;5863;52.832;4.758;2023-02-21T12:11:32;10.90;99.90
11615;DHT22;5863;52.832;4.758;2023-02-21T12:14:23;10.90;99.90
11615;DHT22;5863;52.832;4.758;2023-02-21T12:17:07;10.90;99.90
11615;DHT22;5863;52.832;4.758;2023-02-21T12:19:48;10.90;99.90
11615;DHT22;5863;52.832;4.758;2023-02-21T12:22:26;10.80;99.90
11615;DHT22;5863;52.832;4.758;2023-02-21T12:25:06;10.90;99.90
11615;DHT22;5863;52.832;4.758;2023-02-21T12:27:41;10.90;99.90
11615;DHT22;5863;52.832;4.758;2023-02-21T12:30:45;10.80;99.90
11615;DHT22;5863;52.832;4.758;2023-02-21T12:33:26;10.90;99.90
11615;DHT22;5863;52.832;4.758;2023-02-21T12:36:31;11.00;99.90
11615;DHT22;5863;52.832;4.758;2023-02-21T12:39:10;10.90;99.90
11615;DHT22;5863;52.832;4.758;2023-02-21T12:41:54;10.90;99.90
11615;DHT22;5863;52.832;4.758;2023-02-21T12:44:27;10.90;99.90
11615;DHT22;5863;52.832;4.758;2023-02-21T12:46:58;10.90;99.90
11615;DHT22;5863;52.832;4.758;2023-02-21T12:49:41;10.90;99.90
11615;DHT22;5863;52.832;4.758;2023-02-21T12:52:15;10.90;99.90
11615;DHT22;5863;52.832;4.758;2023-02-21T12:54:46;10.90;99.90
11615;DHT22;5863;52.832;4.758;2023-02-21T12:57:18;10.90;99.90
11615;DHT22;5863;52.832;4.758;2023-02-21T12:59:54;10.90;99.90
11615;DHT22;5863;52.832;4.758;2023-02-21T13:02:29;10.90;99.90
11615;DHT22;5863;52.832;4.758;2023-02-21T13:05:04;10.90;99.90
11615;DHT22;5863;52.832;4.758;2023-02-21T13:07:39;10.90;99.90
11615;DHT22;5863;52.832;4.758;2023-02-21T13:10:15;10.90;99.90
11615;DHT22;5863;52.832;4.758;2023-02-21T13:12:48;10.90;99.90
11615;DHT22;5863;52.832;4.758;2023-02-21T13:15:19;10.80;99.90
11615;DHT22;5863;52.832;4.758;2023-02-21T13:17:57;10.80;99.90
11615;DHT22;5863;52.832;4.758;2023-02-21T13:20:28;10.90;99.90
11615;DHT22;5863;52.832;4.758;2023-02-21T13:26:32;10.80;99.90
11615;DHT22;5863;52.832;4.758;2023-02-21T13:29:02;10.80;99.90
11615;DHT22;5863;52.832;4.758;2023-02-21T13:31:35;10.80;99.90
11615;DHT22;5863;52.832;4.758;2023-02-21T13:34:09;10.70;99.90
11615;DHT22;5863;52.832;4.758;2023-02-21T13:36:42;10.70;99.90
11615;DHT22;5863;52.832;4.758;2023-02-21T13:39:12;10.70;99.90
11615;DHT22;5863;52.832;4.758;2023-02-21T13:41:43;10.60;99.90
11615;DHT22;5863;52.832;4.758;2023-02-21T13:49:51;10.60;99.90
11615;DHT22;5863;52.832;4.758;2023-02-21T13:55:26;10.60;99.90
11615;DHT22;5863;52.832;4.758;2023-02-21T13:58:23;10.60;99.90
11615;DHT22;5863;52.832;4.758;2023-02-21T14:00:56;10.60;99.90
11615;DHT22;5863;52.832;4.758;2023-02-21T14:03:38;10.60;99.90
11615;DHT22;5863;52.832;4.758;2023-02-21T14:06:27;10.60;99.90
11615;DHT22;5863;52.832;4.758;2023-02-21T14:08:57;10.60;99.90
11615;DHT22;5863;52.832;4.758;2023-02-21T14:11:28;10.50;99.90
11615;DHT22;5863;52.832;4.758;2023-02-21T14:14:02;10.50;99.90
11615;DHT22;5863;52.832;4.758;2023-02-21T14:16:33;10.60;99.90
11615;DHT22;5863;52.832;4.758;2023-02-21T14:19:02;10.60;99.90
11615;DHT22;5863;52.832;4.758;2023-02-21T14:21:34;10.50;99.90
11615;DHT22;5863;52.832;4.758;2023-02-21T14:24:05;10.50;99.90
11615;DHT22;5863;52.832;4.758;2023-02-21T14:26:40;10.50;99.90
11615;DHT22;5863;52.832;4.758;2023-02-21T14:29:27;10.50;99.90
11615;DHT22;5863;52.832;4.758;2023-02-21T14:31:56;10.50;99.90
11615;DHT22;5863;52.832;4.758;2023-02-21T14:34:50;10.40;99.90
11615;DHT22;5863;52.832;4.758;2023-02-21T14:37:22;10.40;99.90
11615;DHT22;5863;52.832;4.758;2023-02-21T14:39:51;10.40;99.90
11615;DHT22;5863;52.832;4.758;2023-02-21T14:42:34;10.40;99.90
11615;DHT22;5863;52.832;4.758;2023-02-21T14:45:39;10.40;99.90
11615;DHT22;5863;52.832;4.758;2023-02-21T14:51:36;10.40;99.90
11615;DHT22;5863;52.832;4.758;2023-02-21T14:57:21;10.30;99.90
11615;DHT22;5863;52.832;4.758;2023-02-21T15:00:07;10.20;99.90
11615;DHT22;5863;52.832;4.758;2023-02-21T15:02:41;10.20;99.90
11615;DHT22;5863;52.832;4.758;2023-02-21T15:05:13;10.20;99.90
11615;DHT22;5863;52.832;4.758;2023-02-21T15:07:52;10.20;99.90
11615;DHT22;5863;52.832;4.758;2023-02-21T15:10:24;10.20;99.90
11615;DHT22;5863;52.832;4.758;2023-02-21T15:12:52;10.20;99.90
11615;DHT22;5863;52.832;4.758;2023-02-21T15:15:23;10.20;99.90
11615;DHT22;5863;52.832;4.758;2023-02-21T15:18:01;10.20;99.90
11615;DHT22;5863;52.832;4.758;2023-02-21T15:20:29;10.10;99.90
11615;DHT22;5863;52.832;4.758;2023-02-21T15:22:59;10.10;99.90
11615;DHT22;5863;52.832;4.758;2023-02-21T15:25:27;10.20;99.90
11615;DHT22;5863;52.832;4.758;2023-02-21T15:28:05;10.10;99.90
11615;DHT22;5863;52.832;4.758;2023-02-21T15:30:38;10.10;99.90
11615;DHT22;5863;52.832;4.758;2023-02-21T15:33:16;10.10;99.90
11615;DHT22;5863;52.832;4.758;2023-02-21T15:35:47;10.10;99.90
11615;DHT22;5863;52.832;4.758;2023-02-21T15:38:19;10.10;99.90
11615;DHT22;5863;52.832;4.758;2023-02-21T15:40:47;10.10;99.90
11615;DHT22;5863;52.832;4.758;2023-02-21T15:43:23;10.10;99.90
11615;DHT22;5863;52.832;4.758;2023-02-21T15:45:54;10.10;99.90
11615;DHT22;5863;52.832;4.758;2023-02-21T15:48:22;10.10;99.90
11615;DHT22;5863;52.832;4.758;2023-02-21T15:50:49;10.00;99.90
11615;DHT22;5863;52.832;4.758;2023-02-21T15:53:18;10.00;99.90
11615;DHT22;5863;52.832;4.758;2023-02-21T15:55:46;10.00;99.90
11615;DHT22;5863;52.832;4.758;2023-02-21T15:58:17;10.00;99.90
11615;DHT22;5863;52.832;4.758;2023-02-21T16:00:45;10.00;99.90
11615;DHT22;5863;52.832;4.758;2023-02-21T16:03:34;10.00;99.90
11615;DHT22;5863;52.832;4.758;2023-02-21T16:06:23;9.90;99.90
11615;DHT22;5863;52.832;4.758;2023-02-21T16:08:55;9.90;99.90
11615;DHT22;5863;52.832;4.758;2023-02-21T16:11:37;9.90;99.90
11615;DHT22;5863;52.832;4.758;2023-02-21T16:14:04;9.80;99.90
11615;DHT22;5863;52.832;4.758;2023-02-21T16:16:32;9.80;99.90
11615;DHT22;5863;52.832;4.758;2023-02-21T16:19:00;9.80;99.90
11615;DHT22;5863;52.832;4.758;2023-02-21T16:21:28;9.80;99.90
11615;DHT22;5863;52.832;4.758;2023-02-21T16:23:55;9.70;99.90
11615;DHT22;5863;52.832;4.758;2023-02-21T16:26:24;9.70;99.90
11615;DHT22;5863;52.832;4.758;2023-02-21T16:28:53;9.80;99.90
11615;DHT22;5863;52.832;4.758;2023-02-21T16:31:27;9.70;99.90
11615;DHT22;5863;52.832;4.758;2023-02-21T16:33:54;9.70;99.90
11615;DHT22;5863;52.832;4.758;2023-02-21T16:36:24;9.70;99.90
11615;DHT22;5863;52.832;4.758;2023-02-21T16:38:52;9.70;99.90
11615;DHT22;5863;52.832;4.758;2023-02-21T16:41:19;9.60;99.90
11615;DHT22;5863;52.832;4.758;2023-02-21T16:43:46;9.60;99.90
11615;DHT22;5863;52.832;4.758;2023-02-21T16:46:13;9.60;99.90
11615;DHT22;5863;52.832;4.758;2023-02-21T16:48:41;9.60;99.90
11615;DHT22;5863;52.832;4.758;2023-02-21T16:51:11;9.60;99.90
11615;DHT22;5863;52.832;4.758;2023-02-21T16:53:40;9.60;99.90
11615;DHT22;5863;52.832;4.758;2023-02-21T16:56:07;9.50;99.90
11615;DHT22;5863;52.832;4.758;2023-02-21T16:58:36;9.50;99.90
11615;DHT22;5863;52.832;4.758;2023-02-21T17:01:06;9.50;99.90